createdAt,value
2023-05-07T00:02:06.363Z,1.90
2023-05-07T00:04:37.842Z,2.30
2023-05-07T00:07:05.079Z,2.60
2023-05-07T00:09:33.970Z,2.40
2023-05-07T00:12:00.890Z,2.60
2023-05-07T00:14:27.789Z,2.60
2023-05-07T00:16:54.871Z,2.60
2023-05-07T00:19:21.815Z,2.90
2023-05-07T00:21:48.752Z,2.90
2023-05-07T00:24:15.750Z,2.60
2023-05-07T00:26:42.811Z,2.60
2023-05-07T00:29:09.727Z,2.20
2023-05-07T00:31:36.669Z,2.60
2023-05-07T00:34:03.596Z,2.20
2023-05-07T00:36:31.308Z,2.50
2023-05-07T00:38:58.299Z,2.50
2023-05-07T00:41:25.209Z,2.60
2023-05-07T00:43:55.184Z,2.40
2023-05-07T00:46:22.137Z,2.40
2023-05-07T00:48:49.148Z,2.10
2023-05-07T00:51:16.031Z,2.10
2023-05-07T00:53:42.890Z,1.90
2023-05-07T00:56:09.778Z,2.10
2023-05-07T00:58:36.731Z,2.20
2023-05-07T01:01:03.694Z,2.00
2023-05-07T01:03:30.992Z,2.20
2023-05-07T01:05:58.879Z,2.50
2023-05-07T01:08:27.877Z,3.00
2023-05-07T01:10:55.491Z,3.20
2023-05-07T01:13:22.532Z,2.90
2023-05-07T01:15:49.806Z,2.70
2023-05-07T01:18:16.754Z,2.70
2023-05-07T01:20:43.797Z,2.60
2023-05-07T01:23:10.705Z,2.10
2023-05-07T01:25:37.596Z,2.50
2023-05-07T01:28:05.191Z,2.70
2023-05-07T01:30:34.368Z,2.90
2023-05-07T01:33:05.591Z,2.60
2023-05-07T01:35:33.834Z,2.50
2023-05-07T01:38:00.693Z,2.50
2023-05-07T01:40:27.589Z,2.50
2023-05-07T01:42:54.465Z,2.80
2023-05-07T01:45:21.520Z,2.30
2023-05-07T01:47:48.487Z,2.50
2023-05-07T01:50:15.397Z,2.30
2023-05-07T01:52:42.429Z,2.40
2023-05-07T01:55:09.444Z,2.20
2023-05-07T01:57:36.582Z,2.30
2023-05-07T02:00:07.316Z,2.50
2023-05-07T02:02:42.366Z,2.20
2023-05-07T02:05:11.807Z,2.60
2023-05-07T02:07:39.762Z,2.30
2023-05-07T02:10:07.323Z,2.10
2023-05-07T02:12:34.330Z,2.20
2023-05-07T02:15:01.652Z,2.80
2023-05-07T02:17:28.841Z,2.20
2023-05-07T02:19:55.838Z,2.60
2023-05-07T02:22:22.666Z,2.90
2023-05-07T02:24:50.357Z,2.00
2023-05-07T02:27:17.277Z,2.00
2023-05-07T02:29:44.987Z,2.50
2023-05-07T02:32:11.944Z,2.10
2023-05-07T02:34:38.954Z,2.80
2023-05-07T02:37:05.857Z,2.10
2023-05-07T02:39:32.832Z,2.20
2023-05-07T02:41:59.773Z,2.20
2023-05-07T02:44:26.700Z,2.70
2023-05-07T02:46:53.632Z,2.50
2023-05-07T02:49:20.884Z,3.10
2023-05-07T02:51:47.818Z,3.30
2023-05-07T02:54:19.101Z,4.00
2023-05-07T02:56:46.306Z,5.00
2023-05-07T02:59:13.192Z,3.00
2023-05-07T03:01:41.207Z,2.80
2023-05-07T03:04:09.385Z,2.80
2023-05-07T03:06:36.324Z,3.00
2023-05-07T03:09:03.336Z,3.60
2023-05-07T03:11:30.327Z,3.60
2023-05-07T03:13:57.199Z,3.00
2023-05-07T03:16:24.284Z,2.70
2023-05-07T03:18:51.411Z,2.90
2023-05-07T03:21:18.292Z,2.60
2023-05-07T03:23:45.203Z,2.70
2023-05-07T03:26:12.158Z,2.90
2023-05-07T03:28:39.084Z,2.50
2023-05-07T03:31:08.709Z,2.70
2023-05-07T03:33:36.139Z,2.60
2023-05-07T03:36:03.472Z,2.70
2023-05-07T03:38:30.640Z,2.80
2023-05-07T03:40:58.419Z,2.60
2023-05-07T03:43:25.581Z,2.80
2023-05-07T03:45:59.007Z,1.70
2023-05-07T03:48:27.186Z,2.70
2023-05-07T03:50:55.693Z,3.00
2023-05-07T03:53:22.929Z,3.10
2023-05-07T03:55:49.814Z,3.10
2023-05-07T03:58:16.943Z,2.90
2023-05-07T04:00:44.164Z,2.80
2023-05-07T04:03:29.456Z,3.10
2023-05-07T04:05:58.252Z,2.90
2023-05-07T04:08:25.166Z,2.70
2023-05-07T04:10:57.454Z,3.10
2023-05-07T04:13:25.148Z,3.20
2023-05-07T04:15:52.552Z,3.10
2023-05-07T04:18:19.778Z,3.10
2023-05-07T04:20:46.889Z,3.10
2023-05-07T04:23:14.689Z,2.80
2023-05-07T04:25:41.830Z,2.60
2023-05-07T04:28:19.369Z,2.50
2023-05-07T04:30:46.719Z,2.80
2023-05-07T04:33:15.136Z,2.30
2023-05-07T04:35:42.441Z,2.70
2023-05-07T04:38:09.536Z,1.80
2023-05-07T04:40:37.000Z,2.50
2023-05-07T04:43:04.273Z,3.00
2023-05-07T04:45:33.120Z,2.60
2023-05-07T04:48:00.489Z,2.50
2023-05-07T04:50:28.303Z,2.50
2023-05-07T04:52:57.631Z,2.10
2023-05-07T04:55:24.936Z,2.40
2023-05-07T04:57:53.065Z,2.20
2023-05-07T05:00:21.000Z,2.20
2023-05-07T05:02:48.707Z,2.30
2023-05-07T05:05:18.173Z,2.10
2023-05-07T05:07:45.462Z,2.40
2023-05-07T05:10:13.004Z,1.90
2023-05-07T05:12:40.883Z,2.70
2023-05-07T05:15:08.297Z,2.50
2023-05-07T05:17:37.489Z,2.10
2023-05-07T05:20:05.582Z,1.90
2023-05-07T05:22:32.907Z,2.40
2023-05-07T05:25:00.271Z,2.20
2023-05-07T05:27:27.603Z,2.80
2023-05-07T05:29:54.791Z,2.40
2023-05-07T05:32:21.921Z,2.40
2023-05-07T05:34:49.924Z,2.20
2023-05-07T05:37:16.836Z,2.80
2023-05-07T05:39:45.259Z,2.80
2023-05-07T05:42:12.558Z,1.90
2023-05-07T05:44:39.644Z,1.70
2023-05-07T05:47:06.648Z,2.20
2023-05-07T05:49:33.724Z,2.10
2023-05-07T05:52:00.665Z,2.20
2023-05-07T05:54:27.750Z,2.70
2023-05-07T05:56:54.877Z,2.00
2023-05-07T05:59:21.754Z,2.00
2023-05-07T06:01:48.759Z,2.20
2023-05-07T06:04:15.859Z,3.00
2023-05-07T06:06:43.162Z,2.00
2023-05-07T06:09:10.908Z,2.00
2023-05-07T06:11:42.272Z,2.30
2023-05-07T06:14:09.993Z,2.30
2023-05-07T06:16:39.262Z,2.20
2023-05-07T06:19:07.015Z,2.00
2023-05-07T06:21:34.318Z,2.10
2023-05-07T06:24:01.557Z,2.70
2023-05-07T06:26:28.820Z,2.90
2023-05-07T06:31:43.697Z,2.40
2023-05-07T06:34:11.209Z,2.10
2023-05-07T06:36:38.614Z,1.80
2023-05-07T06:39:13.226Z,1.80
2023-05-07T06:41:40.164Z,1.90
2023-05-07T06:44:10.115Z,2.10
2023-05-07T06:46:44.820Z,1.90
2023-05-07T06:49:13.338Z,2.10
2023-05-07T06:51:40.193Z,1.60
2023-05-07T06:54:07.330Z,2.10
2023-05-07T06:56:35.245Z,2.50
2023-05-07T06:59:03.086Z,1.90
2023-05-07T07:01:32.985Z,2.00
2023-05-07T07:04:01.629Z,1.70
2023-05-07T07:06:29.724Z,1.80
2023-05-07T07:08:56.930Z,1.60
2023-05-07T07:11:23.830Z,1.80
2023-05-07T07:13:51.772Z,1.70
2023-05-07T07:16:18.938Z,1.90
2023-05-07T07:18:46.381Z,1.90
2023-05-07T07:21:13.335Z,2.00
2023-05-07T07:23:40.522Z,2.00
2023-05-07T07:26:07.891Z,2.10
2023-05-07T07:28:34.900Z,2.10
2023-05-07T07:31:02.072Z,2.10
2023-05-07T07:33:30.638Z,1.80
2023-05-07T07:35:57.589Z,1.90
2023-05-07T07:38:24.743Z,2.10
2023-05-07T07:40:51.662Z,1.90
2023-05-07T07:43:18.959Z,1.80
2023-05-07T07:45:47.145Z,1.90
2023-05-07T07:48:14.628Z,1.70
2023-05-07T07:50:45.311Z,1.70
2023-05-07T07:53:15.042Z,1.80
2023-05-07T07:55:42.453Z,1.80
2023-05-07T07:58:12.662Z,2.00
2023-05-07T08:00:40.578Z,1.80
2023-05-07T08:03:10.232Z,1.90
2023-05-07T08:05:39.904Z,1.80
2023-05-07T08:08:07.445Z,1.60
2023-05-07T08:10:39.532Z,1.30
2023-05-07T08:13:11.250Z,1.40
2023-05-07T08:15:39.237Z,1.50
2023-05-07T08:18:06.775Z,1.80
2023-05-07T08:20:34.702Z,1.90
2023-05-07T08:23:01.849Z,1.70
2023-05-07T08:25:29.041Z,1.70
2023-05-07T08:27:56.373Z,1.90
2023-05-07T08:30:23.756Z,1.50
2023-05-07T08:32:51.619Z,1.70
2023-05-07T08:35:18.956Z,2.40
2023-05-07T08:37:46.356Z,1.70
2023-05-07T08:40:14.814Z,1.70
2023-05-07T08:42:42.487Z,1.90
2023-05-07T08:45:10.449Z,2.20
2023-05-07T08:47:46.380Z,2.10
2023-05-07T08:50:14.330Z,1.50
2023-05-07T08:52:41.561Z,1.70
2023-05-07T08:55:09.254Z,1.50
2023-05-07T08:57:36.550Z,1.70
2023-05-07T09:00:04.785Z,1.70
2023-05-07T09:02:33.252Z,1.40
2023-05-07T09:05:00.618Z,1.60
2023-05-07T09:07:28.142Z,1.90
2023-05-07T09:09:58.975Z,2.00
2023-05-07T09:12:26.224Z,1.50
2023-05-07T09:14:53.278Z,1.60
2023-05-07T09:17:20.611Z,1.70
2023-05-07T09:19:47.788Z,1.60
2023-05-07T09:22:15.364Z,1.40
2023-05-07T09:24:53.186Z,1.50
2023-05-07T09:27:22.692Z,1.20
2023-05-07T09:29:49.710Z,1.50
2023-05-07T09:32:17.171Z,1.80
2023-05-07T09:34:44.481Z,1.50
2023-05-07T09:37:12.865Z,1.60
2023-05-07T09:39:43.360Z,1.50
2023-05-07T09:42:11.206Z,1.70
2023-05-07T09:44:38.609Z,1.50
2023-05-07T09:47:08.166Z,1.60
2023-05-07T09:49:40.436Z,1.50
2023-05-07T09:52:11.429Z,1.70
2023-05-07T09:54:44.146Z,1.60
2023-05-07T09:57:11.925Z,1.60
2023-05-07T09:59:39.673Z,1.60
2023-05-07T10:02:08.994Z,1.50
2023-05-07T10:04:39.996Z,1.50
2023-05-07T10:07:07.068Z,1.40
2023-05-07T10:09:35.657Z,1.60
2023-05-07T10:12:02.700Z,1.50
2023-05-07T10:14:30.658Z,1.80
2023-05-07T10:16:57.834Z,1.40
2023-05-07T10:19:26.228Z,1.50
2023-05-07T10:21:58.087Z,1.80
2023-05-07T10:24:30.811Z,1.30
2023-05-07T10:26:58.048Z,1.60
2023-05-07T10:29:25.875Z,2.00
2023-05-07T10:32:12.924Z,1.30
2023-05-07T10:34:41.904Z,1.70
2023-05-07T10:37:09.205Z,1.50
2023-05-07T10:39:36.254Z,1.60
2023-05-07T10:42:10.569Z,1.50
2023-05-07T10:44:38.819Z,1.60
2023-05-07T10:47:12.362Z,1.80
2023-05-07T10:49:47.427Z,1.80
2023-05-07T10:52:24.456Z,1.80
2023-05-07T10:55:21.178Z,1.40
2023-05-07T10:58:31.975Z,1.50
2023-05-07T11:01:39.890Z,1.70
2023-05-07T11:04:16.802Z,1.30
2023-05-07T11:07:09.637Z,1.50
2023-05-07T11:09:52.914Z,1.40
2023-05-07T11:12:44.694Z,1.80
2023-05-07T11:15:35.606Z,1.80
2023-05-07T11:18:04.941Z,1.50
2023-05-07T11:20:51.797Z,1.90
2023-05-07T11:23:50.922Z,1.60
2023-05-07T11:26:26.294Z,1.70
2023-05-07T11:28:54.482Z,1.50
2023-05-07T11:31:22.875Z,1.40
2023-05-07T11:33:49.882Z,1.30
2023-05-07T11:36:17.109Z,1.80
2023-05-07T11:38:46.820Z,1.70
2023-05-07T11:41:14.110Z,1.30
2023-05-07T11:43:55.134Z,1.80
2023-05-07T11:46:22.286Z,1.40
2023-05-07T11:48:49.270Z,1.40
2023-05-07T11:51:19.791Z,1.60
2023-05-07T11:53:46.714Z,1.50
2023-05-07T11:56:14.221Z,1.50
2023-05-07T11:58:41.542Z,1.40
2023-05-07T12:01:09.120Z,1.50
2023-05-07T12:03:37.495Z,1.50
2023-05-07T12:06:06.793Z,1.70
2023-05-07T12:08:33.667Z,1.90
2023-05-07T12:11:00.483Z,1.70
2023-05-07T12:13:27.469Z,1.40
2023-05-07T12:15:54.768Z,1.50
2023-05-07T12:18:21.940Z,1.20
2023-05-07T12:20:49.096Z,1.60
2023-05-07T12:23:16.095Z,1.50
2023-05-07T12:25:47.875Z,1.60
2023-05-07T12:28:18.189Z,1.70
2023-05-07T12:30:45.872Z,1.40
2023-05-07T12:33:12.731Z,1.60
2023-05-07T12:35:43.034Z,1.80
2023-05-07T12:38:13.544Z,1.70
2023-05-07T12:40:41.322Z,1.80
2023-05-07T12:43:08.386Z,1.60
2023-05-07T12:45:39.801Z,2.20
2023-05-07T12:48:06.704Z,1.50
2023-05-07T12:50:34.420Z,1.30
2023-05-07T12:53:01.410Z,1.60
2023-05-07T12:55:33.341Z,1.80
2023-05-07T12:58:01.956Z,1.60
2023-05-07T13:00:38.636Z,2.00
2023-05-07T13:03:06.006Z,1.60
2023-05-07T13:05:33.079Z,1.60
2023-05-07T13:07:59.989Z,1.10
2023-05-07T13:10:27.014Z,1.50
2023-05-07T13:12:54.055Z,1.30
2023-05-07T13:15:20.988Z,1.40
2023-05-07T13:17:48.013Z,1.40
2023-05-07T13:20:15.075Z,1.40
2023-05-07T13:22:41.907Z,1.90
2023-05-07T13:25:09.237Z,1.60
2023-05-07T13:27:39.121Z,1.30
2023-05-07T13:30:06.681Z,1.40
2023-05-07T13:32:33.841Z,1.20
2023-05-07T13:35:01.403Z,1.50
2023-05-07T13:37:28.344Z,1.20
2023-05-07T13:39:55.372Z,1.40
2023-05-07T13:42:22.204Z,1.20
2023-05-07T13:44:49.010Z,1.30
2023-05-07T13:47:15.999Z,1.20
2023-05-07T13:49:42.950Z,1.20
2023-05-07T13:52:09.844Z,1.30
2023-05-07T13:54:36.825Z,1.30
2023-05-07T13:57:03.791Z,1.40
2023-05-07T13:59:30.749Z,1.60
2023-05-07T14:01:57.723Z,1.30
2023-05-07T14:04:24.591Z,1.40
2023-05-07T14:06:53.809Z,1.50
2023-05-07T14:09:21.053Z,1.30
2023-05-07T14:11:48.801Z,1.30
2023-05-07T14:14:15.783Z,1.40
2023-05-07T14:16:42.839Z,1.30
2023-05-07T14:19:10.145Z,2.10
2023-05-07T14:21:37.541Z,1.60
2023-05-07T14:24:04.712Z,1.50
2023-05-07T14:26:32.247Z,1.20
2023-05-07T14:28:59.606Z,1.20
2023-05-07T14:31:26.890Z,1.20
2023-05-07T14:33:54.636Z,1.10
2023-05-07T14:36:22.605Z,1.40
2023-05-07T14:38:49.918Z,1.70
2023-05-07T14:41:17.278Z,1.50
2023-05-07T14:43:45.075Z,2.00
2023-05-07T14:46:12.072Z,1.90
2023-05-07T14:48:39.028Z,1.70
2023-05-07T14:51:05.887Z,1.70
2023-05-07T14:53:32.993Z,1.40
2023-05-07T14:56:00.197Z,1.50
2023-05-07T14:58:27.050Z,1.50
2023-05-07T15:00:54.003Z,1.80
2023-05-07T15:03:21.046Z,1.60
2023-05-07T15:05:47.942Z,2.00
2023-05-07T15:08:14.925Z,1.60
2023-05-07T15:10:42.457Z,1.60
2023-05-07T15:13:11.870Z,1.30
2023-05-07T15:15:41.567Z,1.90
2023-05-07T15:18:08.422Z,1.60
2023-05-07T15:20:36.320Z,2.20
2023-05-07T15:23:03.979Z,1.90
2023-05-07T15:25:32.865Z,1.40
2023-05-07T15:27:59.702Z,1.60
2023-05-07T15:30:27.200Z,1.60
2023-05-07T15:32:54.476Z,1.70
2023-05-07T15:35:23.152Z,1.60
2023-05-07T15:37:54.012Z,1.50
2023-05-07T15:40:20.923Z,1.30
2023-05-07T15:42:48.222Z,2.20
2023-05-07T15:45:15.225Z,1.40
2023-05-07T15:47:42.128Z,1.30
2023-05-07T15:50:09.329Z,1.40
2023-05-07T15:52:36.360Z,1.40
2023-05-07T15:55:03.799Z,1.40
2023-05-07T15:57:30.962Z,1.90
2023-05-07T15:59:57.996Z,1.50
2023-05-07T16:02:25.071Z,1.30
2023-05-07T16:04:52.268Z,1.60
2023-05-07T16:07:20.037Z,1.20
2023-05-07T16:09:47.508Z,1.30
2023-05-07T16:12:14.413Z,1.40
2023-05-07T16:14:41.483Z,1.50
2023-05-07T16:17:08.529Z,1.70
2023-05-07T16:19:35.430Z,1.40
2023-05-07T16:22:02.806Z,1.40
2023-05-07T16:24:29.692Z,1.30
2023-05-07T16:26:56.601Z,1.60
2023-05-07T16:29:23.898Z,1.50
2023-05-07T16:31:51.030Z,1.30
2023-05-07T16:34:17.917Z,1.40
2023-05-07T16:36:44.880Z,1.30
2023-05-07T16:39:11.701Z,1.60
2023-05-07T16:41:38.579Z,1.70
2023-05-07T16:44:05.700Z,1.60
2023-05-07T16:46:32.620Z,2.20
2023-05-07T16:48:59.561Z,2.20
2023-05-07T16:51:28.030Z,2.20
2023-05-07T16:53:54.873Z,2.20
2023-05-07T16:56:22.232Z,2.30
2023-05-07T16:58:49.660Z,1.80
2023-05-07T17:01:18.967Z,2.20
2023-05-07T17:03:46.120Z,2.00
2023-05-07T17:06:15.250Z,2.10
2023-05-07T17:08:43.263Z,2.00
2023-05-07T17:11:10.273Z,2.60
2023-05-07T17:13:37.257Z,2.10
2023-05-07T17:16:04.391Z,2.10
2023-05-07T17:18:31.358Z,2.70
2023-05-07T17:20:58.264Z,2.70
2023-05-07T17:23:25.117Z,2.90
2023-05-07T17:25:51.967Z,4.10
2023-05-07T17:28:18.923Z,3.80
2023-05-07T17:30:46.685Z,4.00
2023-05-07T17:33:20.746Z,4.40
2023-05-07T17:35:48.284Z,3.80
2023-05-07T17:38:15.136Z,3.80
2023-05-07T17:40:42.079Z,3.20
2023-05-07T17:43:09.009Z,3.20
2023-05-07T17:45:36.182Z,3.50
2023-05-07T17:48:03.683Z,3.10
2023-05-07T17:50:30.811Z,3.00
2023-05-07T17:52:58.030Z,2.60
2023-05-07T17:55:24.971Z,2.20
2023-05-07T17:57:51.997Z,2.60
2023-05-07T18:00:18.917Z,2.50
2023-05-07T18:02:46.471Z,2.80
2023-05-07T18:05:13.524Z,2.70
2023-05-07T18:07:40.485Z,3.20
2023-05-07T18:10:07.696Z,2.90
2023-05-07T18:12:34.780Z,2.90
2023-05-07T18:15:01.667Z,2.70
2023-05-07T18:17:28.593Z,3.20
2023-05-07T18:19:55.682Z,2.40
2023-05-07T18:22:22.675Z,2.50
2023-05-07T18:24:49.730Z,3.00
2023-05-07T18:27:16.745Z,2.90
2023-05-07T18:29:43.727Z,3.30
2023-05-07T18:32:10.900Z,3.20
2023-05-07T18:34:37.897Z,2.60
2023-05-07T18:37:04.787Z,2.50
2023-05-07T18:39:31.818Z,2.40
2023-05-07T18:42:00.011Z,3.20
2023-05-07T18:44:26.953Z,2.70
2023-05-07T18:49:30.861Z,2.70
2023-05-07T18:51:58.019Z,3.70
2023-05-07T18:54:24.939Z,2.90
2023-05-07T18:56:51.899Z,2.80
2023-05-07T18:59:18.928Z,2.80
2023-05-07T19:01:46.345Z,2.70
2023-05-07T19:04:13.523Z,2.30
2023-05-07T19:06:40.510Z,2.80
2023-05-07T19:09:07.370Z,2.90
2023-05-07T19:11:34.383Z,2.20
2023-05-07T19:14:03.675Z,2.70
2023-05-07T19:16:31.484Z,2.60
2023-05-07T19:18:58.494Z,2.50
2023-05-07T19:21:25.451Z,2.20
2023-05-07T19:23:53.955Z,2.70
2023-05-07T19:26:21.457Z,2.40
2023-05-07T19:28:52.013Z,2.60
2023-05-07T19:31:28.527Z,2.20
2023-05-07T19:33:55.473Z,2.40
2023-05-07T19:36:22.285Z,2.40
2023-05-07T19:38:50.225Z,2.10
2023-05-07T19:41:17.074Z,2.10
2023-05-07T19:43:43.940Z,2.30
2023-05-07T19:46:11.120Z,1.70
2023-05-07T19:48:38.063Z,2.30
2023-05-07T19:51:04.946Z,1.70
2023-05-07T19:53:31.856Z,2.10
2023-05-07T19:56:05.855Z,1.70
2023-05-07T19:58:33.106Z,1.70
2023-05-07T20:01:01.690Z,1.50
2023-05-07T20:03:29.030Z,2.00
2023-05-07T20:05:55.992Z,2.00
2023-05-07T20:08:22.871Z,2.20
2023-05-07T20:10:49.996Z,2.20
2023-05-07T20:13:17.015Z,2.00
2023-05-07T20:15:44.017Z,1.90
2023-05-07T20:18:11.004Z,1.90
2023-05-07T20:20:38.120Z,1.70
2023-05-07T20:23:04.987Z,2.50
2023-05-07T20:25:31.840Z,4.00
2023-05-07T20:27:58.865Z,4.20
2023-05-07T20:30:26.668Z,2.70
2023-05-07T20:32:53.552Z,2.90
2023-05-07T20:35:20.404Z,2.50
2023-05-07T20:37:47.289Z,2.90
2023-05-07T20:40:14.359Z,3.20
2023-05-07T20:42:42.776Z,2.90
2023-05-07T20:45:10.406Z,2.70
2023-05-07T20:47:37.327Z,3.00
2023-05-07T20:50:04.527Z,3.10
2023-05-07T20:52:31.437Z,4.30
2023-05-07T20:54:58.301Z,3.70
2023-05-07T20:57:25.269Z,3.00
2023-05-07T20:59:52.253Z,2.90
2023-05-07T21:02:19.165Z,3.00
2023-05-07T21:04:46.412Z,2.90
2023-05-07T21:07:13.457Z,2.20
2023-05-07T21:09:40.418Z,2.10
2023-05-07T21:12:07.340Z,2.10
2023-05-07T21:14:34.241Z,1.70
2023-05-07T21:17:01.223Z,2.10
2023-05-07T21:19:28.192Z,2.20
2023-05-07T21:21:57.882Z,1.80
2023-05-07T21:24:25.099Z,2.10
2023-05-07T21:26:54.232Z,1.70
2023-05-07T21:29:22.255Z,1.90
2023-05-07T21:31:49.363Z,1.70
2023-05-07T21:34:16.321Z,1.90
2023-05-07T21:36:43.229Z,2.10
2023-05-07T21:39:10.159Z,1.40
2023-05-07T21:41:37.077Z,1.70
2023-05-07T21:44:04.370Z,1.80
2023-05-07T21:46:31.285Z,1.90
2023-05-07T21:48:58.332Z,1.70
2023-05-07T21:51:25.188Z,1.70
2023-05-07T21:53:52.006Z,1.30
2023-05-07T21:56:18.890Z,1.60
2023-05-07T21:58:45.851Z,1.50
2023-05-07T22:01:13.074Z,1.50
2023-05-07T22:03:40.373Z,1.40
2023-05-07T22:06:07.438Z,2.10
2023-05-07T22:08:34.426Z,1.70
2023-05-07T22:11:01.340Z,1.70
2023-05-07T22:13:28.373Z,1.60
2023-05-07T22:15:57.854Z,1.50
2023-05-07T22:18:26.075Z,1.50
2023-05-07T22:20:53.007Z,1.70
2023-05-07T22:23:19.922Z,1.70
2023-05-07T22:25:46.812Z,1.50
2023-05-07T22:28:13.707Z,1.80
2023-05-07T22:30:40.788Z,1.70
2023-05-07T22:33:07.753Z,1.70
2023-05-07T22:35:34.801Z,1.60
2023-05-07T22:38:01.724Z,1.20
2023-05-07T22:40:28.610Z,1.40
2023-05-07T22:42:55.515Z,1.30
2023-05-07T22:45:22.471Z,1.60
2023-05-07T22:47:49.516Z,1.70
2023-05-07T22:50:16.505Z,1.50
2023-05-07T22:52:43.330Z,1.60
2023-05-07T22:55:10.313Z,1.40
2023-05-07T22:57:37.178Z,1.60
2023-05-07T23:00:04.551Z,1.40
2023-05-07T23:02:32.671Z,1.60
2023-05-07T23:05:00.727Z,1.60
2023-05-07T23:07:28.021Z,1.60
2023-05-07T23:09:55.010Z,1.70
2023-05-07T23:12:21.858Z,1.50
2023-05-07T23:14:48.778Z,1.60
2023-05-07T23:17:15.786Z,1.40
2023-05-07T23:19:43.093Z,1.50
2023-05-07T23:22:10.523Z,1.40
2023-05-07T23:24:37.483Z,1.60
2023-05-07T23:27:05.534Z,1.50
2023-05-07T23:29:32.814Z,1.40
2023-05-07T23:31:59.790Z,1.30
2023-05-07T23:34:27.001Z,1.50
2023-05-07T23:36:53.978Z,1.40
2023-05-07T23:39:21.041Z,1.30
2023-05-07T23:41:47.973Z,1.50
2023-05-07T23:44:16.647Z,1.90
2023-05-07T23:46:44.470Z,1.40
2023-05-07T23:49:11.514Z,1.50
2023-05-07T23:51:38.437Z,1.60
2023-05-07T23:54:05.409Z,1.50
2023-05-07T23:56:32.345Z,1.40
2023-05-07T23:58:59.620Z,1.50
